Ana Sayfa
METAR-TAF:

METAR-TAF

Havaalanları :

Ocean City Municipal Airport

Ocean City, Maryland, Amerika Birleşik Devletleri

Enlem: 38-18-38N, Boylam: 075-07-26W, yükseklik: 4 m

Güncel hava durumu gözlemi

Rapor saat 07:53 UTC de 37 dakika önce yapıldı.
Rüzgar batı/güneybatıdan 5 kt
Sıcaklık 8°C
Nem 93%
Basınç 1014 hPa
Görüş mesafesi: 12.9 km
5000 ft yükseklikte az bulutlu
8000 ft yükseklikte çok bulutlu
hafif yağmur

METAR: KOXB 250753Z AUTO 24005KT 8SM -RA FEW050 OVC080 08/07 A2993 RMK AO2 SLP135 P0004 T00780072

Saat: 03:30 (08:30 UTC)


TAF: eksik

4.000'den fazla havaalanı için hava durumu gözlemleri ve tahminleri (METAR ve TAF raporları).

Kullanılabilir istasyonlar harita üzerinde sarı ve kırmızı noktalarla gösterilir.

İstasyonun adını görmek için fareyi noktanın üzerinde gezdirin.

Sonrasında hava gözlem ve tahminlerini görmek için tıklayın.

Haritayı değiştirmek için: yaklaştırmak için siyah artı işaretli yeşil düğmeye ve uzaklaştırmak için de eksi işaretli düğmeye hızla tıklayın; bitişik haritalar için yeşil okları kullanın.


METAR-TAF: